Time;durP1;ratioP1;P1;durP2;ratioP2;P2;SDS_P1;SDS_P2;PMS_P1;PMS_P2;Temp;Humidity;BMP_temperature;BMP_pressure;BME280_temperature;BME280_humidity;BME280_pressure;Samples;Min_cycle;Max_cycle;Signal;HPM_P1;HPM_P2
2023/06/25 00:01:06;;;;;;;13.52;8.05;;;;;;;13.41;100.00;98927.81;2593748;28;20052;-84
2023/06/25 00:02:39;;;;;;;10.82;6.93;;;;;;;13.11;100.00;98930.50;2595239;28;20057;-84
2023/06/25 00:03:54;;;;;;;11.23;7.57;;;;;;;13.24;100.00;98926.59;2592880;28;20432;-83
2023/06/25 00:05:10;;;;;;;11.82;7.55;;;;;;;13.34;100.00;98926.28;2593773;28;20070;-83
2023/06/25 00:06:25;;;;;;;11.60;7.70;;;;;;;13.48;100.00;98925.91;2594305;28;20049;-83
2023/06/25 00:07:41;;;;;;;12.30;8.27;;;;;;;13.60;100.00;98930.75;2593811;28;20127;-84
2023/06/25 00:08:57;;;;;;;11.10;7.45;;;;;;;13.74;100.00;98918.94;2593115;28;20061;-83
2023/06/25 00:10:12;;;;;;;12.35;7.18;;;;;;;13.70;100.00;98926.06;2595250;28;20088;-83
2023/06/25 00:11:28;;;;;;;12.40;6.63;;;;;;;13.54;100.00;98925.69;2593096;28;20497;-83
2023/06/25 00:12:43;;;;;;;9.80;6.93;;;;;;;13.58;100.00;98924.69;2593961;28;20547;-83
2023/06/25 00:13:59;;;;;;;13.52;6.68;;;;;;;13.63;100.00;98920.13;2593800;28;21010;-83
2023/06/25 00:15:15;;;;;;;9.27;6.78;;;;;;;13.69;100.00;98921.69;2593496;28;20505;-83
2023/06/25 00:16:30;;;;;;;9.30;6.75;;;;;;;13.86;100.00;98921.16;2592124;28;20056;-83
2023/06/25 00:17:47;;;;;;;9.70;7.03;;;;;;;13.77;100.00;98926.72;2593551;28;20092;-84
2023/06/25 00:19:03;;;;;;;9.57;6.78;;;;;;;13.69;100.00;98929.59;2592946;28;20049;-83
2023/06/25 00:20:19;;;;;;;13.57;6.75;;;;;;;13.63;100.00;98932.44;2594470;28;20076;-84
2023/06/25 00:21:34;;;;;;;9.20;6.70;;;;;;;13.56;100.00;98921.25;2593978;28;20515;-84
2023/06/25 00:22:50;;;;;;;10.68;6.55;;;;;;;13.59;100.00;98923.78;2591069;28;20385;-83
2023/06/25 00:24:06;;;;;;;10.30;6.70;;;;;;;13.49;100.00;98919.72;2593982;28;20421;-84
2023/06/25 00:25:26;;;;;;;9.80;6.75;;;;;;;13.38;100.00;98920.03;2592176;28;20908;-83
2023/06/25 00:26:45;;;;;;;10.65;6.65;;;;;;;13.40;100.00;98923.47;2593739;28;20044;-83
2023/06/25 00:28:00;;;;;;;12.57;6.70;;;;;;;13.36;100.00;98913.97;2594637;28;20386;-83
2023/06/25 00:29:16;;;;;;;8.77;6.22;;;;;;;13.39;100.00;98919.97;2593716;28;20064;-84
2023/06/25 00:30:32;;;;;;;11.07;6.63;;;;;;;13.41;100.00;98918.19;2593089;28;20053;-83
2023/06/25 00:31:47;;;;;;;8.80;6.35;;;;;;;13.30;100.00;98914.16;2593919;28;20050;-84
2023/06/25 00:33:03;;;;;;;9.77;6.60;;;;;;;13.52;100.00;98919.63;2592325;28;20140;-84
2023/06/25 00:34:19;;;;;;;11.70;6.78;;;;;;;13.53;100.00;98910.81;2593598;28;20054;-86
2023/06/25 00:36:05;;;;;;;10.77;6.65;;;;;;;13.55;100.00;98914.28;2594940;28;20053;-84
2023/06/25 00:37:21;;;;;;;8.68;5.90;;;;;;;13.46;100.00;98914.56;2594982;28;20081;-84
2023/06/25 00:38:38;;;;;;;10.95;6.70;;;;;;;13.54;100.00;98907.25;2591587;28;20060;-84
2023/06/25 00:39:54;;;;;;;9.05;6.50;;;;;;;13.59;100.00;98921.16;2593833;28;20124;-83
2023/06/25 00:41:10;;;;;;;9.98;6.57;;;;;;;13.58;100.00;98910.66;2593040;28;20046;-83
2023/06/25 00:42:26;;;;;;;9.32;6.28;;;;;;;13.58;100.00;98914.16;2593083;28;20054;-83
2023/06/25 00:43:41;;;;;;;10.00;6.68;;;;;;;13.60;100.00;98909.72;2594203;28;20045;-84
2023/06/25 00:44:57;;;;;;;9.50;6.68;;;;;;;13.58;100.00;98908.03;2593662;28;20058;-83
2023/06/25 00:46:15;;;;;;;8.70;6.22;;;;;;;13.54;100.00;98907.25;2592721;28;20046;-84
2023/06/25 00:47:32;;;;;;;10.52;6.65;;;;;;;13.38;100.00;98910.38;2591924;28;20081;-84
2023/06/25 00:48:47;;;;;;;11.20;6.78;;;;;;;13.36;100.00;98895.56;2588329;28;20120;-84
2023/06/25 00:50:03;;;;;;;10.68;6.85;;;;;;;13.32;100.00;98907.94;2594602;28;20497;-84
2023/06/25 00:51:21;;;;;;;11.52;7.10;;;;;;;13.32;100.00;98905.31;2594073;28;20056;-83
2023/06/25 00:52:40;;;;;;;12.13;7.18;;;;;;;13.26;100.00;98901.09;2593153;28;20129;-84
2023/06/25 00:53:56;;;;;;;9.45;6.65;;;;;;;13.05;100.00;98900.00;2594254;28;20100;-84
2023/06/25 00:55:11;;;;;;;9.48;7.03;;;;;;;13.10;100.00;98900.72;2592058;28;20049;-84
2023/06/25 00:56:31;;;;;;;9.00;6.47;;;;;;;13.09;100.00;98895.53;2592635;28;20172;-85
2023/06/25 00:57:46;;;;;;;11.70;7.18;;;;;;;12.97;100.00;98891.50;2592946;28;20489;-84
2023/06/25 00:59:02;;;;;;;9.25;6.82;;;;;;;12.93;100.00;98900.38;2592175;28;20056;-84
2023/06/25 01:00:19;;;;;;;9.27;6.35;;;;;;;12.91;100.00;98903.03;2592505;28;20625;-84
2023/06/25 01:01:45;;;;;;;10.43;6.70;;;;;;;12.90;100.00;98900.47;2592918;28;20053;-84
2023/06/25 01:03:41;;;;;;;10.55;7.00;;;;;;;12.81;100.00;98899.84;2593642;28;20131;-84
2023/06/25 01:05:05;;;;;;;10.50;6.55;;;;;;;12.87;100.00;98906.69;2596976;28;20140;-84
2023/06/25 01:06:29;;;;;;;9.23;6.65;;;;;;;12.86;100.00;98904.97;2596791;28;20061;-84
2023/06/25 01:07:45;;;;;;;8.88;6.38;;;;;;;12.93;100.00;98896.00;2596868;28;20061;-84
2023/06/25 01:09:02;;;;;;;10.52;6.70;;;;;;;12.77;100.00;98897.34;2597029;28;20524;-84
2023/06/25 01:10:17;;;;;;;10.02;6.75;;;;;;;12.80;100.00;98895.50;2596552;28;20310;-87
2023/06/25 01:11:33;;;;;;;10.98;7.32;;;;;;;12.78;100.00;98894.69;2597047;28;20054;-85
2023/06/25 01:12:48;;;;;;;9.50;6.53;;;;;;;12.75;100.00;98900.03;2596600;28;20552;-84
2023/06/25 01:14:04;;;;;;;10.65;7.00;;;;;;;12.80;100.00;98899.91;2596709;28;20566;-83
2023/06/25 01:15:20;;;;;;;10.85;7.20;;;;;;;12.95;100.00;98894.19;2596961;28;20053;-84
2023/06/25 01:16:35;;;;;;;10.80;6.97;;;;;;;12.89;100.00;98896.13;2596986;28;20134;-83
2023/06/25 01:17:51;;;;;;;10.32;7.10;;;;;;;12.94;100.00;98892.47;2596856;28;20128;-83
2023/06/25 01:19:07;;;;;;;11.48;7.78;;;;;;;12.90;100.00;98890.81;2597018;28;20437;-83
2023/06/25 01:20:22;;;;;;;10.25;7.18;;;;;;;12.92;100.00;98893.41;2596238;28;20128;-84
2023/06/25 01:21:39;;;;;;;10.48;6.72;;;;;;;12.85;100.00;98888.34;2596824;28;20053;-84
2023/06/25 01:22:56;;;;;;;13.10;7.40;;;;;;;12.66;100.00;98900.28;2596675;28;20095;-84
2023/06/25 01:24:11;;;;;;;10.50;7.25;;;;;;;12.65;100.00;98890.69;2596662;28;20053;-84
2023/06/25 01:25:27;;;;;;;10.65;7.10;;;;;;;12.71;100.00;98887.88;2596798;28;20054;-83
2023/06/25 01:26:44;;;;;;;10.00;6.80;;;;;;;12.77;100.00;98895.59;2596796;28;20045;-85
2023/06/25 01:27:59;;;;;;;10.38;7.25;;;;;;;12.68;100.00;98894.09;2596512;28;20060;-85
2023/06/25 01:29:15;;;;;;;10.20;6.53;;;;;;;12.74;100.00;98895.69;2596855;28;20444;-84
2023/06/25 01:30:31;;;;;;;10.07;6.50;;;;;;;12.76;100.00;98895.63;2596798;28;20080;-84
2023/06/25 01:31:51;;;;;;;8.75;6.85;;;;;;;12.71;100.00;98891.38;2596657;28;20415;-84
2023/06/25 01:33:06;;;;;;;9.32;6.82;;;;;;;12.75;100.00;98894.78;2596817;28;20056;-84
2023/06/25 01:34:23;;;;;;;9.25;6.63;;;;;;;12.77;100.00;98887.72;2596905;28;20451;-84
2023/06/25 01:35:38;;;;;;;10.52;6.60;;;;;;;12.72;100.00;98892.25;2596926;28;20057;-84
2023/06/25 01:36:54;;;;;;;8.50;6.57;;;;;;;12.79;100.00;98878.00;2596660;28;20129;-84
2023/06/25 01:38:10;;;;;;;8.52;6.70;;;;;;;12.75;100.00;98886.91;2596694;28;20065;-84
2023/06/25 01:39:26;;;;;;;9.13;6.50;;;;;;;12.68;100.00;98882.72;2596675;28;20414;-84
2023/06/25 01:40:41;;;;;;;9.52;6.82;;;;;;;12.76;100.00;98888.63;2595000;28;20053;-84
2023/06/25 01:41:57;;;;;;;9.43;6.80;;;;;;;12.62;100.00;98880.28;2595811;28;20067;-84
2023/06/25 01:43:13;;;;;;;9.18;6.43;;;;;;;12.74;100.00;98885.19;2595123;28;20053;-84
2023/06/25 01:44:31;;;;;;;11.38;6.97;;;;;;;12.75;100.00;98886.91;2595464;28;20420;-84
2023/06/25 01:45:46;;;;;;;11.07;6.55;;;;;;;12.78;100.00;98881.53;2595584;28;20111;-84
2023/06/25 01:47:02;;;;;;;9.43;6.30;;;;;;;12.70;100.00;98886.16;2594253;28;20052;-84
2023/06/25 01:48:18;;;;;;;8.80;6.20;;;;;;;12.66;100.00;98879.28;2595972;28;20479;-84
2023/06/25 01:49:33;;;;;;;10.15;6.97;;;;;;;12.68;100.00;98880.97;2594504;28;20046;-84
2023/06/25 01:50:49;;;;;;;8.13;6.18;;;;;;;12.64;100.00;98876.72;2595871;28;20065;-85
2023/06/25 01:52:07;;;;;;;10.60;7.35;;;;;;;12.61;100.00;98887.28;2594697;28;20208;-84
2023/06/25 01:53:22;;;;;;;8.90;6.38;;;;;;;12.55;100.00;98874.34;2593429;28;20045;-84
2023/06/25 01:54:39;;;;;;;8.95;6.18;;;;;;;12.55;100.00;98875.19;2593834;28;20057;-84
2023/06/25 01:55:54;;;;;;;8.50;6.45;;;;;;;12.51;100.00;98870.94;2596403;28;20057;-84
2023/06/25 01:57:09;;;;;;;8.00;6.35;;;;;;;12.49;100.00;98872.75;2594620;28;20050;-84
2023/06/25 01:58:25;;;;;;;9.68;6.18;;;;;;;12.33;100.00;98876.72;2593276;28;20224;-84
2023/06/25 01:59:41;;;;;;;9.18;6.18;;;;;;;12.24;100.00;98876.06;2593821;28;20490;-84
2023/06/25 02:00:56;;;;;;;11.40;6.00;;;;;;;12.20;100.00;98873.56;2593425;28;20083;-84
2023/06/25 02:02:12;;;;;;;9.05;6.15;;;;;;;12.15;100.00;98874.56;2595199;28;20145;-84
2023/06/25 02:03:27;;;;;;;8.68;6.40;;;;;;;12.29;100.00;98866.31;2594311;28;20147;-84
2023/06/25 02:04:43;;;;;;;9.52;6.13;;;;;;;12.33;100.00;98872.31;2593939;28;20044;-84
2023/06/25 02:05:58;;;;;;;8.45;5.93;;;;;;;12.33;100.00;98867.06;2594606;28;20041;-84
2023/06/25 02:07:14;;;;;;;9.35;6.45;;;;;;;12.12;100.00;98865.91;2589905;28;20358;-84
2023/06/25 02:08:29;;;;;;;9.48;6.38;;;;;;;12.16;100.00;98872.81;2593171;28;20054;-84
2023/06/25 02:09:45;;;;;;;10.13;6.63;;;;;;;12.11;100.00;98870.31;2594895;28;20104;-84
2023/06/25 02:11:01;;;;;;;9.07;6.43;;;;;;;12.11;100.00;98867.69;2596255;28;20100;-84
2023/06/25 02:12:16;;;;;;;11.07;7.38;;;;;;;12.05;100.00;98864.38;2594385;28;20088;-84
2023/06/25 02:13:33;;;;;;;11.02;6.63;;;;;;;12.10;100.00;98858.09;2595075;28;20053;-84
2023/06/25 02:14:48;;;;;;;9.73;7.03;;;;;;;12.02;100.00;98870.56;2594956;28;20068;-84
2023/06/25 02:16:04;;;;;;;9.40;6.40;;;;;;;11.97;100.00;98867.16;2593634;28;20046;-84
2023/06/25 02:17:20;;;;;;;10.80;7.63;;;;;;;11.81;100.00;98857.09;2589685;28;20560;-84
2023/06/25 02:18:36;;;;;;;11.75;7.53;;;;;;;11.87;100.00;98858.66;2592980;28;20117;-85
2023/06/25 02:19:51;;;;;;;10.40;7.50;;;;;;;11.86;100.00;98856.94;2595899;28;20478;-84
2023/06/25 02:21:07;;;;;;;10.50;7.45;;;;;;;11.89;100.00;98859.50;2595488;28;20152;-84
2023/06/25 02:22:23;;;;;;;10.65;7.38;;;;;;;11.90;100.00;98861.22;2595194;28;20045;-84
2023/06/25 02:23:38;;;;;;;11.60;7.60;;;;;;;11.90;100.00;98860.34;2594095;28;20049;-85
2023/06/25 02:24:54;;;;;;;11.10;7.97;;;;;;;11.87;100.00;98863.91;2593846;28;20060;-84
2023/06/25 02:26:09;;;;;;;12.88;7.80;;;;;;;11.86;100.00;98862.19;2594373;28;20600;-84
2023/06/25 02:27:25;;;;;;;12.45;7.35;;;;;;;11.94;100.00;98862.84;2593989;28;20049;-83
2023/06/25 02:28:41;;;;;;;10.20;7.20;;;;;;;11.98;100.00;98864.47;2592826;28;20080;-85
2023/06/25 02:29:58;;;;;;;10.85;7.28;;;;;;;12.05;100.00;98865.22;2594022;28;20132;-85
2023/06/25 02:31:14;;;;;;;10.45;6.75;;;;;;;12.02;100.00;98859.22;2593144;28;20049;-85
2023/06/25 02:32:30;;;;;;;9.82;6.53;;;;;;;11.96;100.00;98863.66;2594228;28;20069;-83
2023/06/25 02:33:45;;;;;;;9.88;6.80;;;;;;;11.90;100.00;98860.34;2596349;28;20405;-83
2023/06/25 02:35:01;;;;;;;10.68;6.78;;;;;;;11.94;100.00;98869.84;2594013;28;20512;-84
2023/06/25 02:36:17;;;;;;;10.10;6.82;;;;;;;11.96;100.00;98861.03;2594362;28;20056;-84
2023/06/25 02:37:32;;;;;;;9.98;6.40;;;;;;;12.08;100.00;98861.66;2593271;28;20406;-84
2023/06/25 02:38:48;;;;;;;9.50;6.50;;;;;;;12.11;100.00;98864.19;2593009;28;20057;-84
2023/06/25 02:40:04;;;;;;;10.10;6.78;;;;;;;11.90;100.00;98858.59;2595620;28;20493;-84
2023/06/25 02:41:19;;;;;;;10.32;7.30;;;;;;;11.92;100.00;98864.66;2596305;28;20046;-85
2023/06/25 02:42:35;;;;;;;9.00;6.30;;;;;;;11.80;100.00;98860.59;2593701;28;20115;-84
2023/06/25 02:43:50;;;;;;;9.48;6.60;;;;;;;11.90;100.00;98857.72;2589596;28;20682;-84
2023/06/25 02:45:06;;;;;;;10.13;6.72;;;;;;;11.97;100.00;98856.69;2595701;28;20057;-84
2023/06/25 02:46:22;;;;;;;10.70;6.55;;;;;;;11.81;100.00;98850.97;2593855;28;20524;-85
2023/06/25 02:47:37;;;;;;;9.82;7.00;;;;;;;11.80;100.00;98855.34;2589778;28;20540;-85
2023/06/25 02:48:53;;;;;;;10.18;6.47;;;;;;;11.84;100.00;98845.63;2594703;28;20452;-85
2023/06/25 02:50:09;;;;;;;9.25;6.32;;;;;;;11.82;100.00;98855.31;2593624;28;20140;-84
2023/06/25 02:51:24;;;;;;;9.65;6.60;;;;;;;11.89;100.00;98850.75;2593477;28;20046;-84
2023/06/25 02:52:40;;;;;;;9.88;6.85;;;;;;;11.72;100.00;98852.91;2593340;28;20452;-85
2023/06/25 02:53:58;;;;;;;9.75;7.00;;;;;;;11.75;100.00;98851.97;2593824;28;20180;-84
2023/06/25 02:55:14;;;;;;;11.60;7.28;;;;;;;11.85;100.00;98852.59;2593825;28;20099;-84
2023/06/25 02:56:29;;;;;;;12.00;6.63;;;;;;;12.02;100.00;98853.97;2593972;28;20489;-84
2023/06/25 02:57:45;;;;;;;12.30;7.13;;;;;;;11.98;100.00;98856.63;2594788;28;20046;-84
2023/06/25 02:59:01;;;;;;;10.45;7.00;;;;;;;12.03;100.00;98860.94;2593107;28;20112;-84
2023/06/25 03:00:16;;;;;;;13.23;6.53;;;;;;;11.96;100.00;98854.97;2592589;28;20049;-84
2023/06/25 03:01:32;;;;;;;14.75;7.47;;;;;;;12.00;100.00;98857.44;2592309;28;20107;-83
2023/06/25 03:02:48;;;;;;;9.82;6.78;;;;;;;12.00;100.00;98862.69;2594104;28;20417;-83
2023/06/25 03:04:03;;;;;;;9.70;6.70;;;;;;;11.94;100.00;98856.72;2594646;28;20049;-84
2023/06/25 03:05:19;;;;;;;10.27;6.65;;;;;;;11.87;100.00;98858.66;2593858;28;20053;-84
2023/06/25 03:06:34;;;;;;;11.57;6.85;;;;;;;11.94;100.00;98856.72;2593528;28;20049;-84
2023/06/25 03:07:55;;;;;;;9.45;6.85;;;;;;;11.81;100.00;98856.22;2592663;28;20077;-84
2023/06/25 03:09:11;;;;;;;9.57;6.97;;;;;;;11.76;100.00;98853.69;2594958;28;20095;-84
2023/06/25 03:10:29;;;;;;;10.82;7.97;;;;;;;11.85;100.00;98848.22;2595901;28;20477;-83
2023/06/25 03:11:45;;;;;;;12.55;7.22;;;;;;;11.98;100.00;98851.38;2594321;28;20786;-84
2023/06/25 03:13:00;;;;;;;10.77;7.45;;;;;;;12.01;100.00;98850.44;2593640;28;20057;-85
2023/06/25 03:14:16;;;;;;;10.52;6.82;;;;;;;11.94;100.00;98847.09;2594698;28;20042;-84
2023/06/25 03:15:31;;;;;;;10.93;7.07;;;;;;;11.97;100.00;98841.78;2593752;28;20751;-84
2023/06/25 03:16:47;;;;;;;9.77;6.55;;;;;;;11.85;100.00;98839.47;2596106;28;20080;-84
2023/06/25 03:18:03;;;;;;;11.82;6.90;;;;;;;11.79;100.00;98844.91;2595757;28;20417;-84
2023/06/25 03:19:18;;;;;;;9.70;6.55;;;;;;;11.89;100.00;98837.63;2593654;28;20064;-84
2023/06/25 03:20:34;;;;;;;10.70;6.50;;;;;;;11.95;100.00;98840.97;2591070;28;20052;-83
2023/06/25 03:21:50;;;;;;;12.60;6.85;;;;;;;12.05;100.00;98844.22;2594410;28;20054;-83
2023/06/25 03:23:05;;;;;;;9.23;6.60;;;;;;;12.08;100.00;98841.53;2594740;28;20061;-83
2023/06/25 03:24:21;;;;;;;10.50;6.63;;;;;;;12.03;100.00;98845.19;2593725;28;20092;-84
2023/06/25 03:25:36;;;;;;;10.30;7.03;;;;;;;11.89;100.00;98837.63;2593479;28;20056;-84
2023/06/25 03:26:52;;;;;;;12.25;6.28;;;;;;;11.81;100.00;98840.47;2593829;28;20050;-85
2023/06/25 03:28:08;;;;;;;9.82;6.45;;;;;;;11.83;100.00;98838.66;2593524;28;20054;-83
2023/06/25 03:29:23;;;;;;;10.13;6.88;;;;;;;11.82;100.00;98837.81;2588844;28;20401;-83
2023/06/25 03:30:39;;;;;;;9.43;6.53;;;;;;;11.78;100.00;98840.56;2594755;28;20054;-83
2023/06/25 03:31:55;;;;;;;9.48;6.75;;;;;;;11.82;100.00;98831.69;2595645;28;20490;-84
2023/06/25 03:33:10;;;;;;;11.93;7.15;;;;;;;12.06;100.00;98843.31;2592633;28;20054;-83
2023/06/25 03:34:26;;;;;;;8.60;6.15;;;;;;;12.09;100.00;98840.63;2593842;28;20139;-84
2023/06/25 03:35:41;;;;;;;9.88;6.57;;;;;;;12.05;100.00;98840.75;2593612;28;20050;-83
2023/06/25 03:36:57;;;;;;;10.77;6.80;;;;;;;11.91;100.00;98846.31;2593251;28;20046;-84
2023/06/25 03:38:13;;;;;;;9.57;6.30;;;;;;;11.87;100.00;98842.91;2594299;28;20061;-83
2023/06/25 03:39:28;;;;;;;9.25;6.88;;;;;;;12.03;100.00;98843.41;2593936;28;20045;-84
2023/06/25 03:40:44;;;;;;;13.10;7.15;;;;;;;11.97;100.00;98844.41;2589953;28;20045;-84
2023/06/25 03:42:00;;;;;;;9.95;6.60;;;;;;;11.97;100.00;98849.66;2593669;28;20053;-84
2023/06/25 03:43:15;;;;;;;13.85;7.18;;;;;;;11.95;100.00;98846.22;2594623;28;20050;-84
2023/06/25 03:44:31;;;;;;;10.70;7.15;;;;;;;12.02;100.00;98843.47;2589098;28;20640;-84
2023/06/25 03:45:46;;;;;;;11.13;7.70;;;;;;;12.08;100.00;98843.28;2593024;28;20216;-84
2023/06/25 03:47:02;;;;;;;10.75;7.63;;;;;;;12.14;100.00;98845.72;2593183;28;20054;-84
2023/06/25 03:48:18;;;;;;;9.13;6.35;;;;;;;12.15;100.00;98845.69;2593941;28;20554;-84
2023/06/25 03:49:33;;;;;;;9.65;6.80;;;;;;;12.14;100.00;98840.47;2595415;28;20049;-84
2023/06/25 03:50:49;;;;;;;11.13;7.47;;;;;;;12.19;100.00;98837.72;2594598;28;20056;-84
2023/06/25 03:52:05;;;;;;;10.52;7.22;;;;;;;12.27;100.00;98836.59;2592470;28;20057;-84
2023/06/25 03:53:20;;;;;;;10.05;7.15;;;;;;;12.26;100.00;98840.13;2595863;28;20049;-84
2023/06/25 03:54:36;;;;;;;10.45;7.20;;;;;;;12.25;100.00;98840.19;2593553;28;20053;-83
2023/06/25 03:55:52;;;;;;;11.48;7.60;;;;;;;12.28;100.00;98840.09;2592567;28;20115;-84
2023/06/25 03:57:08;;;;;;;9.88;7.15;;;;;;;12.23;100.00;98836.75;2592627;28;20048;-84
2023/06/25 03:58:23;;;;;;;10.43;6.57;;;;;;;12.30;100.00;98843.53;2592443;28;20054;-83
2023/06/25 03:59:39;;;;;;;9.43;6.35;;;;;;;12.35;100.00;98832.91;2593348;28;20068;-83
2023/06/25 04:00:54;;;;;;;11.77;7.30;;;;;;;12.33;100.00;98837.34;2595603;28;20103;-83
2023/06/25 04:02:10;;;;;;;10.15;7.22;;;;;;;12.40;100.00;98831.88;2594759;28;20558;-83
2023/06/25 04:03:26;;;;;;;11.82;7.22;;;;;;;12.49;100.00;98828.09;2595010;28;20073;-83
2023/06/25 04:04:41;;;;;;;10.80;7.45;;;;;;;12.50;100.00;98826.31;2593247;28;20220;-83
2023/06/25 04:05:57;;;;;;;11.70;7.35;;;;;;;12.60;100.00;98826.94;2592948;28;20079;-83
2023/06/25 04:07:12;;;;;;;11.13;6.75;;;;;;;12.55;100.00;98821.81;2594102;28;20107;-83
2023/06/25 04:08:28;;;;;;;10.60;7.18;;;;;;;12.56;100.00;98823.53;2593770;28;20217;-83
2023/06/25 04:09:43;;;;;;;11.30;7.32;;;;;;;12.60;100.00;98827.78;2593889;28;20296;-83
2023/06/25 04:10:59;;;;;;;11.52;8.07;;;;;;;12.62;100.00;98823.34;2593581;28;20118;-83
2023/06/25 04:12:15;;;;;;;10.95;6.97;;;;;;;12.68;100.00;98817.91;2594867;28;20053;-83
2023/06/25 04:13:30;;;;;;;11.38;7.25;;;;;;;12.54;100.00;98820.09;2592834;28;20061;-82
2023/06/25 04:14:47;;;;;;;13.07;7.93;;;;;;;12.42;100.00;98821.31;2594981;28;20053;-83
2023/06/25 04:16:03;;;;;;;10.18;7.10;;;;;;;12.28;100.00;98825.19;2594512;28;20413;-83
2023/06/25 04:17:19;;;;;;;11.00;7.35;;;;;;;12.28;100.00;98827.81;2592797;28;20054;-83
2023/06/25 04:18:37;;;;;;;9.82;7.10;;;;;;;12.41;100.00;98825.72;2594869;28;20519;-82
2023/06/25 04:19:53;;;;;;;10.88;7.30;;;;;;;12.51;100.00;98831.53;2594274;28;20077;-82
2023/06/25 04:21:08;;;;;;;10.80;7.15;;;;;;;12.49;100.00;98825.47;2594165;28;20053;-83
2023/06/25 04:22:24;;;;;;;12.82;7.78;;;;;;;12.54;100.00;98831.44;2592245;28;20092;-82
2023/06/25 04:23:40;;;;;;;10.40;7.63;;;;;;;12.46;100.00;98828.22;2596591;28;20050;-82
2023/06/25 04:24:55;;;;;;;10.30;7.35;;;;;;;12.46;100.00;98822.97;2595048;28;20088;-82
2023/06/25 04:26:11;;;;;;;13.00;8.30;;;;;;;12.55;100.00;98819.19;2592973;28;20574;-82
2023/06/25 04:27:27;;;;;;;12.23;8.00;;;;;;;12.62;100.00;98823.34;2590066;28;20140;-83
2023/06/25 04:28:42;;;;;;;10.48;7.53;;;;;;;12.64;100.00;98823.31;2592402;28;20041;-82
2023/06/25 04:29:58;;;;;;;12.00;7.78;;;;;;;12.67;100.00;98817.94;2593414;28;20057;-82
2023/06/25 04:31:14;;;;;;;10.95;7.50;;;;;;;12.78;100.00;98822.88;2593154;28;20055;-81
2023/06/25 04:32:29;;;;;;;13.35;7.70;;;;;;;12.96;100.00;98822.31;2594241;28;20505;-81
2023/06/25 04:33:45;;;;;;;10.93;7.88;;;;;;;13.01;100.00;98816.91;2594110;28;20053;-81
2023/06/25 04:35:00;;;;;;;10.95;7.35;;;;;;;13.00;100.00;98823.91;2593807;28;20053;-81
2023/06/25 04:36:18;;;;;;;10.45;7.53;;;;;;;13.05;100.00;98818.53;2593236;28;20477;-81
2023/06/25 04:37:34;;;;;;;12.20;7.28;;;;;;;12.98;100.00;98825.75;2594843;28;20056;-82
2023/06/25 04:38:49;;;;;;;12.00;7.65;;;;;;;13.00;100.00;98823.06;2591935;28;20401;-81
2023/06/25 04:40:07;;;;;;;9.85;7.35;;;;;;;12.81;100.00;98821.00;2593822;28;20049;-81
2023/06/25 04:41:23;;;;;;;11.07;7.80;;;;;;;13.22;100.00;98814.47;2594500;28;20054;-81
2023/06/25 04:42:38;;;;;;;14.23;7.88;;;;;;;13.26;100.00;98823.97;2593542;28;20050;-82
2023/06/25 04:43:54;;;;;;;12.63;8.52;;;;;;;13.14;100.00;98812.97;2594458;28;20049;-82
2023/06/25 04:45:10;;;;;;;11.40;7.75;;;;;;;13.18;100.00;98816.34;2594847;28;20041;-82
2023/06/25 04:46:25;;;;;;;11.63;7.80;;;;;;;13.17;100.00;98813.78;2592047;28;20424;-81
2023/06/25 04:47:41;;;;;;;11.35;7.85;;;;;;;13.06;100.00;98822.00;2592045;28;20473;-81
2023/06/25 04:48:56;;;;;;;11.35;7.90;;;;;;;13.34;100.00;98818.47;2592976;28;20050;-81
2023/06/25 04:50:12;;;;;;;12.27;7.80;;;;;;;13.27;100.00;98820.47;2593402;28;20128;-82
2023/06/25 04:51:27;;;;;;;11.18;7.45;;;;;;;13.44;100.00;98819.91;2593633;28;20049;-82
2023/06/25 04:52:43;;;;;;;11.88;7.70;;;;;;;13.52;100.00;98815.28;2595367;28;20052;-80
2023/06/25 04:53:59;;;;;;;11.95;7.47;;;;;;;13.68;100.00;98823.47;2592673;28;20458;-81
2023/06/25 04:55:14;;;;;;;12.57;7.40;;;;;;;13.47;100.00;98821.59;2594560;28;20064;-81
2023/06/25 04:56:30;;;;;;;10.18;7.45;;;;;;;13.50;100.00;98825.00;2596223;28;20046;-81
2023/06/25 04:57:46;;;;;;;10.10;7.50;;;;;;;13.56;100.00;98827.41;2594498;28;20504;-80
2023/06/25 04:59:01;;;;;;;13.48;7.85;;;;;;;13.56;100.00;98831.81;2593800;28;20220;-81
2023/06/25 05:00:17;;;;;;;13.88;8.30;;;;;;;13.72;100.00;98826.88;2595187;28;20516;-81
2023/06/25 05:01:33;;;;;;;13.15;8.23;;;;;;;13.60;100.00;98822.91;2594713;28;20062;-81
2023/06/25 05:02:48;;;;;;;13.85;8.52;;;;;;;13.79;100.00;98827.50;2594435;28;20054;-81
2023/06/25 05:04:04;;;;;;;11.23;8.50;;;;;;;13.79;100.00;98824.88;2596752;28;20045;-81
2023/06/25 05:05:19;;;;;;;15.00;7.93;;;;;;;13.69;100.00;98825.22;2594703;28;20097;-80
2023/06/25 05:06:35;;;;;;;9.98;7.10;;;;;;;13.42;100.00;98824.34;2594032;28;20502;-81
2023/06/25 05:07:51;;;;;;;11.60;8.20;;;;;;;13.84;100.00;98825.59;2593648;28;20084;-81
2023/06/25 05:09:07;;;;;;;11.13;8.25;;;;;;;13.95;100.00;98823.41;2596798;28;20096;-81
2023/06/25 05:10:23;;;;;;;11.38;7.72;;;;;;;14.06;100.00;98827.44;2594602;28;20493;-82
2023/06/25 05:11:38;;;;;;;10.93;7.57;;;;;;;14.04;100.00;98818.75;2590073;28;20057;-82
2023/06/25 05:12:54;;;;;;;12.10;8.20;;;;;;;14.18;100.00;98827.00;2595873;28;20144;-80
2023/06/25 05:14:10;;;;;;;10.68;7.32;;;;;;;14.28;100.00;98822.25;2594595;28;20049;-81
2023/06/25 05:15:25;;;;;;;11.63;7.65;;;;;;;14.08;100.00;98829.13;2596060;28;20440;-81
2023/06/25 05:16:41;;;;;;;10.90;7.78;;;;;;;14.29;100.00;98828.38;2595377;28;20057;-82
2023/06/25 05:17:56;;;;;;;11.13;7.97;;;;;;;14.46;100.00;98830.38;2596229;28;20045;-81
2023/06/25 05:19:12;;;;;;;13.48;8.32;;;;;;;14.46;100.00;98825.97;2592509;28;21005;-81
2023/06/25 05:20:31;;;;;;;11.30;7.55;;;;;;;14.61;100.00;98829.81;2596373;28;20053;-81
2023/06/25 05:21:46;;;;;;;10.38;7.43;;;;;;;14.68;100.00;98828.66;2596545;28;20433;-81
2023/06/25 05:23:03;;;;;;;10.00;7.07;;;;;;;14.88;100.00;98837.59;2596764;28;20053;-81
2023/06/25 05:24:19;;;;;;;10.35;7.43;;;;;;;14.82;100.00;98825.53;2596592;28;20115;-81
2023/06/25 05:25:35;;;;;;;11.18;6.85;;;;;;;14.90;100.00;98827.84;2597759;28;20045;-80
2023/06/25 05:26:50;;;;;;;14.55;8.98;;;;;;;14.96;100.00;98830.22;2596080;28;20109;-81
2023/06/25 05:28:06;;;;;;;12.20;7.32;;;;;;;15.01;100.00;98829.19;2596372;28;20098;-80
2023/06/25 05:29:22;;;;;;;11.93;7.55;;;;;;;15.04;100.00;98835.19;2596127;28;20493;-81
2023/06/25 05:30:37;;;;;;;10.95;8.15;;;;;;;14.99;100.00;98829.25;2596307;28;20481;-81
2023/06/25 05:31:56;;;;;;;10.77;7.55;;;;;;;14.83;100.00;98829.00;2594945;28;20626;-81
2023/06/25 05:33:11;;;;;;;9.25;6.93;;;;;;;14.68;100.00;98828.66;2595669;28;20052;-81
2023/06/25 05:34:27;;;;;;;10.07;7.72;;;;;;;15.09;100.00;98830.63;2595847;28;20055;-80
2023/06/25 05:35:45;;;;;;;9.55;6.88;;;;;;;14.95;100.00;98828.50;2594694;28;20077;-80
2023/06/25 05:37:01;;;;;;;11.23;7.78;;;;;;;15.17;100.00;98827.66;2594906;28;20618;-82
2023/06/25 05:38:16;;;;;;;10.32;6.80;;;;;;;15.14;100.00;98816.38;2594830;28;20053;-81
2023/06/25 05:39:32;;;;;;;11.45;7.95;;;;;;;15.23;100.00;98819.50;2595736;28;20133;-81
2023/06/25 05:40:48;;;;;;;12.05;7.22;;;;;;;15.35;100.00;98826.03;2595721;28;20049;-80
2023/06/25 05:42:03;;;;;;;10.65;7.15;;;;;;;15.35;100.00;98827.81;2595199;28;20046;-81
2023/06/25 05:43:21;;;;;;;10.95;7.30;;;;;;;15.51;100.00;98828.91;2591526;28;20088;-81
2023/06/25 05:44:37;;;;;;;12.73;7.32;;;;;;;15.68;100.00;98830.81;2593939;28;20046;-81
2023/06/25 05:45:52;;;;;;;10.85;7.47;;;;;;;15.68;100.00;98822.03;2591276;28;20049;-81
2023/06/25 05:47:08;;;;;;;9.73;7.40;;;;;;;15.70;100.00;98824.63;2595149;28;20046;-81
2023/06/25 05:48:25;;;;;;;11.07;7.60;;;;;;;15.63;100.00;98824.03;2597010;28;20046;-81
2023/06/25 05:49:41;;;;;;;12.05;7.80;;;;;;;15.74;100.00;98828.84;2597693;28;20077;-81
2023/06/25 05:50:56;;;;;;;9.95;7.38;;;;;;;15.90;100.00;98829.06;2594832;28;20042;-81
2023/06/25 05:52:14;;;;;;;10.55;7.32;;;;;;;16.03;100.00;98824.09;2597898;28;20042;-80